Latest Weather Observations for Hillarys Point Boat Harbour

IDW60801

Issued at 7:35 pm WST Saturday 20 September 2014 (issued every 30 minutes, with the page automatically refreshed every 10 minutes)

About weather observations | Map of weather stations | Latest weather observations for WA | Other Formats
Station Details ID: 009265 Name: HILLARYS BOAT HARBOUR NTC AWS Lat: -31.83 Lon: 115.74 Height: 0.0 m
Data from the previous 72 hours. | See also: Recent months for locations in Western Australia
Date/Time
WST
Temp
°C
App
Temp
°C
Dew
Point
Rel
Hum
%
Delta-T
°C
Wind Press
QNH
hPa
Press
MSL
hPa
Rain
since 9 am
mm
Dir
 
Spd
km/h
Gust
km/h
Spd
kts
Gust
kts
20/07:30pm 20.2 - - - - N 9 15 5 8 1011.9 1011.9 -
20/07:00pm 20.2 - - - - N 11 15 6 8 1011.6 1011.6 -
20/06:30pm 20.3 - - - - N 11 19 6 10 1011.5 1011.5 -
20/06:00pm 20.7 - - - - N 13 22 7 12 1011.2 1011.2 -
20/05:30pm 21.2 - - - - NNW 15 26 8 14 1010.8 1010.8 -
20/05:00pm 21.9 - - - - NNW 19 32 10 17 1010.1 1010.1 -
20/04:30pm 22.9 - - - - NNW 15 26 8 14 1009.5 1009.5 -
20/04:00pm 22.3 - - - - NNW 11 20 6 11 1009.2 1009.2 -
20/03:30pm 22.5 - - - - NW 7 15 4 8 1009.1 1009.1 -
20/03:00pm 22.4 - - - - WNW 13 24 7 13 1009.4 1009.4 -
20/02:30pm 25.5 - - - - NNW 13 26 7 14 1008.6 1008.6 -
20/02:00pm 29.2 - - - - NNW 17 26 9 14 1008.5 1008.5 -
20/01:30pm 32.4 - - - - N 22 39 12 21 1009.0 1009.0 -
20/01:00pm 31.6 - - - - N 17 32 9 17 1009.5 1009.5 -
20/12:30pm 30.7 - - - - NNE 20 35 11 19 1010.2 1010.2 -
20/12:00pm 29.6 - - - - NE 19 30 10 16 1010.8 1010.8 -
20/11:30am 28.6 - - - - NE 20 35 11 19 1011.1 1011.1 -
20/11:00am 27.7 - - - - NE 19 39 10 21 1011.5 1011.5 -
20/10:30am 26.5 - - - - NNE 20 39 11 21 1012.0 1012.0 -
20/10:00am 25.6 - - - - NE 20 35 11 19 1012.4 1012.4 -
20/09:30am 24.1 - - - - NE 17 32 9 17 1012.7 1012.7 -
20/09:00am 22.5 - - - - ENE 22 41 12 22 1012.8 1012.8 -
20/08:30am 21.4 - - - - ENE 26 46 14 25 1013.1 1013.1 -
20/08:00am 20.3 - - - - ENE 24 33 13 18 1013.4 1013.4 -
20/07:30am 19.1 - - - - ENE 22 37 12 20 1013.6 1013.6 -
20/07:00am 17.6 - - - - ENE 20 32 11 17 1014.0 1014.0 -
20/06:30am 16.6 - - - - ENE 17 26 9 14 1014.1 1014.1 -
20/06:00am 16.5 - - - - ENE 17 28 9 15 1014.2 1014.2 -
20/05:30am 16.9 - - - - ENE 20 30 11 16 1014.3 1014.3 -
20/05:00am 16.8 - - - - ENE 19 28 10 15 1014.4 1014.4 -
20/04:30am 16.6 - - - - ENE 17 26 9 14 1014.6 1014.6 -
20/04:00am 15.8 - - - - ENE 13 22 7 12 1014.9 1014.9 -
20/03:30am 15.1 - - - - ENE 9 15 5 8 1015.4 1015.4 -
20/03:00am 15.3 - - - - ENE 6 9 3 5 1016.0 1016.0 -
20/02:30am 16.1 - - - - NNE 4 6 2 3 1016.2 1016.2 -
20/02:00am 16.3 - - - - E 9 13 5 7 1016.1 1016.1 -
20/01:30am 16.2 - - - - ENE 9 15 5 8 1016.4 1016.4 -
20/01:00am 16.7 - - - - E 9 15 5 8 1016.7 1016.7 -
20/12:30am 16.2 - - - - E 2 6 1 3 1017.3 1017.3 -
20/12:00am 16.8 - - - - ESE 2 6 1 3 1017.6 1017.6 -
 
Date/Time
WST
Temp
°C
App
Temp
°C
Dew
Point
Rel
Hum
%
Delta-T
°C
Wind Press
QNH
hPa
Press
MSL
hPa
Rain
since 9 am
mm
Dir
 
Spd
km/h
Gust
km/h
Spd
kts
Gust
kts
19/11:30pm 17.3 - - - - S 4 7 2 4 1017.9 1017.9 -
19/11:00pm 17.6 - - - - S 4 7 2 4 1018.3 1018.3 -
19/10:30pm 17.9 - - - - SSE 6 9 3 5 1018.7 1018.7 -
19/10:00pm 18.3 - - - - SSE 6 11 3 6 1019.0 1019.0 -
19/09:30pm 18.6 - - - - S 4 9 2 5 1019.5 1019.5 -
19/09:00pm 18.7 - - - - S 4 11 2 6 1019.6 1019.6 -
19/08:30pm 18.8 - - - - S 6 11 3 6 1019.8 1019.8 -
19/08:00pm 19.1 - - - - SSE 6 11 3 6 1019.7 1019.7 -
19/07:30pm 19.3 - - - - SSE 6 11 3 6 1019.7 1019.7 -
19/07:00pm 19.3 - - - - S 6 15 3 8 1019.5 1019.5 -
19/06:30pm 19.4 - - - - S 6 11 3 6 1019.4 1019.4 -
19/06:00pm 19.6 - - - - S 4 11 2 6 1019.2 1019.2 -
19/05:30pm 20.0 - - - - SSW 4 11 2 6 1019.1 1019.1 -
19/05:00pm 20.1 - - - - SSW 6 13 3 7 1018.9 1018.9 -
19/04:30pm 20.1 - - - - SSW 7 15 4 8 1019.0 1019.0 -
19/04:00pm 20.1 - - - - SSW 11 19 6 10 1019.0 1019.0 -
19/03:30pm 20.3 - - - - SSW 9 17 5 9 1019.1 1019.1 -
19/03:00pm 20.2 - - - - SW 9 17 5 9 1019.2 1019.2 -
19/02:30pm 20.4 - - - - SSW 9 15 5 8 1019.4 1019.4 -
19/02:00pm 20.5 - - - - SSW 9 17 5 9 1019.7 1019.7 -
19/01:30pm 20.3 - - - - SSW 9 17 5 9 1020.0 1020.0 -
19/01:00pm 20.3 - - - - SW 11 17 6 9 1020.4 1020.4 -
19/12:30pm 19.5 - - - - SW 13 19 7 10 1020.8 1020.8 -
19/12:00pm 19.4 - - - - SW 13 19 7 10 1021.3 1021.3 -
19/11:30am 19.3 - - - - SW 11 15 6 8 1021.7 1021.7 -
19/11:00am 18.9 - - - - SW 9 13 5 7 1022.0 1022.0 -
19/10:30am 18.7 - - - - WSW 9 13 5 7 1022.1 1022.1 -
19/10:00am 18.6 - - - - SW 7 11 4 6 1022.3 1022.3 -
19/09:30am 19.2 - - - - S 6 11 3 6 1022.4 1022.4 -
19/09:00am 19.2 - - - - ESE 4 9 2 5 1022.5 1022.5 -
19/08:30am 18.1 - - - - E 6 11 3 6 1022.4 1022.4 -
19/08:00am 17.2 - - - - ENE 7 13 4 7 1022.0 1022.0 -
19/07:30am 16.2 - - - - ENE 6 9 3 5 1021.7 1021.7 -
19/07:00am 15.2 - - - - ENE 7 11 4 6 1021.3 1021.3 -
19/06:30am 14.6 - - - - ENE 6 7 3 4 1021.0 1021.0 -
19/06:00am 15.2 - - - - ENE 2 4 1 2 1020.8 1020.8 -
19/05:30am 15.5 - - - - ENE 2 6 1 3 1020.6 1020.6 -
19/05:00am 15.9 - - - - ENE 2 4 1 2 1020.4 1020.4 -
19/04:30am 16.2 - - - - E 2 4 1 2 1020.2 1020.2 -
19/04:00am 16.3 - - - - E 2 6 1 3 1020.1 1020.1 -
19/03:30am 16.7 - - - - ESE 2 6 1 3 1020.2 1020.2 -
19/03:00am 17.2 - - - - SE 2 6 1 3 1020.1 1020.1 -
19/02:30am 17.5 - - - - ESE 2 6 1 3 1020.3 1020.3 -
19/02:00am 17.6 - - - - SE 2 6 1 3 1020.3 1020.3 -
19/01:30am 17.6 - - - - E 2 7 1 4 1020.3 1020.3 -
19/01:00am 17.9 - - - - SSE 4 13 2 7 1020.3 1020.3 -
19/12:30am 18.1 - - - - S 6 11 3 6 1020.5 1020.5 -
19/12:00am 18.1 - - - - S 6 13 3 7 1020.3 1020.3 -
 
Date/Time
WST
Temp
°C
App
Temp
°C
Dew
Point
Rel
Hum
%
Delta-T
°C
Wind Press
QNH
hPa
Press
MSL
hPa
Rain
since 9 am
mm
Dir
 
Spd
km/h
Gust
km/h
Spd
kts
Gust
kts
18/11:30pm 18.3 - - - - S 6 17 3 9 1020.4 1020.4 -
18/11:00pm 18.2 - - - - S 6 15 3 8 1020.4 1020.4 -
18/10:30pm 18.3 - - - - SSW 6 19 3 10 1020.7 1020.7 -
18/10:00pm 18.4 - - - - SSW 9 19 5 10 1020.6 1020.6 -
18/09:30pm 18.5 - - - - SSW 11 22 6 12 1020.6 1020.6 -
18/09:00pm 18.4 - - - - SSW 9 17 5 9 1020.3 1020.3 -
18/08:30pm 18.5 - - - - SSW 9 17 5 9 1020.2 1020.2 -
18/08:00pm 18.5 - - - - SSW 13 24 7 13 1020.0 1020.0 -
18/07:30pm 18.5 - - - - SSW 11 20 6 11 1019.6 1019.6 -
18/07:00pm 18.5 - - - - SSW 13 24 7 13 1019.2 1019.2 -
18/06:30pm 18.4 - - - - SSW 13 24 7 13 1018.8 1018.8 -
18/06:00pm 18.5 - - - - SSW 15 28 8 15 1018.4 1018.4 -
18/05:30pm 18.8 - - - - SSW 11 22 6 12 1017.9 1017.9 -
18/05:00pm 19.0 - - - - SSW 15 26 8 14 1017.6 1017.6 -
18/04:30pm 19.1 - - - - SSW 15 28 8 15 1017.3 1017.3 -
18/04:00pm 19.2 - - - - SSW 13 22 7 12 1017.1 1017.1 -
18/03:30pm 19.4 - - - - SSW 15 28 8 15 1016.8 1016.8 -
18/03:00pm 19.7 - - - - SSW 15 28 8 15 1016.7 1016.7 -
18/02:30pm 19.7 - - - - SSW 15 24 8 13 1016.7 1016.7 -
18/02:00pm 19.8 - - - - SSW 13 22 7 12 1016.6 1016.6 -
18/01:30pm 19.5 - - - - SSW 15 24 8 13 1016.5 1016.5 -
18/01:00pm 19.4 - - - - SSW 13 26 7 14 1016.4 1016.4 -
18/12:30pm 19.2 - - - - SSW 11 22 6 12 1016.6 1016.6 -
18/12:00pm 19.0 - - - - SSW 11 20 6 11 1016.7 1016.7 -
18/11:30am 18.9 - - - - SSW 11 20 6 11 1016.9 1016.9 -
18/11:00am 18.9 - - - - SSW 7 15 4 8 1017.0 1017.0 -
18/10:30am 18.5 - - - - SSW 9 19 5 10 1017.1 1017.1 -
18/10:00am 18.0 - - - - SSW 11 19 6 10 1017.3 1017.3 -
18/09:30am 17.9 - - - - SSW 9 19 5 10 1017.1 1017.1 -
18/09:00am 17.9 - - - - S 6 9 3 5 1017.0 1017.0 -
18/08:30am 17.1 - - - - S 7 15 4 8 1017.0 1017.0 -
18/08:00am 16.6 - - - - S 6 15 3 8 1017.0 1017.0 -
18/07:30am 15.8 - - - - S 6 11 3 6 1016.6 1016.6 -
18/07:00am 15.2 - - - - SSE 6 13 3 7 1016.1 1016.1 -
18/06:30am 16.3 - - - - S 6 13 3 7 1015.9 1015.9 -
18/06:00am 16.0 - - - - S 4 9 2 5 1015.7 1015.7 -
18/05:30am 15.3 - - - - SSE 4 7 2 4 1015.5 1015.5 -
18/05:00am 15.8 - - - - SE 4 7 2 4 1015.3 1015.3 -
18/04:30am 16.2 - - - - SE 4 7 2 4 1015.2 1015.2 -
18/04:00am 17.0 - - - - SSE 7 11 4 6 1015.1 1015.1 -
18/03:30am 17.1 - - - - S 6 13 3 7 1015.0 1015.0 -
18/03:00am 17.3 - - - - SSE 6 13 3 7 1015.0 1015.0 -
18/02:30am 17.8 - - - - S 4 9 2 5 1015.1 1015.1 -
18/02:00am 17.3 - - - - S 4 11 2 6 1015.2 1015.2 -
18/01:30am 17.2 - - - - SSE 6 11 3 6 1015.2 1015.2 -
18/01:00am 17.5 - - - - S 6 11 3 6 1015.3 1015.3 -
18/12:30am 17.5 - - - - S 6 11 3 6 1015.4 1015.4 -
18/12:00am 17.8 - - - - S 4 9 2 5 1015.6 1015.6 -
 
Date/Time
WST
Temp
°C
App
Temp
°C
Dew
Point
Rel
Hum
%
Delta-T
°C
Wind Press
QNH
hPa
Press
MSL
hPa
Rain
since 9 am
mm
Dir
 
Spd
km/h
Gust
km/h
Spd
kts
Gust
kts
17/11:30pm 17.8 - - - - S 4 11 2 6 1015.7 1015.7 -
17/11:00pm 17.9 - - - - S 6 11 3 6 1015.9 1015.9 -
17/10:30pm 18.3 - - - - SSE 6 13 3 7 1016.0 1016.0 -
17/10:00pm 18.4 - - - - S 6 17 3 9 1016.1 1016.1 -
17/09:30pm 18.6 - - - - S 6 19 3 10 1016.1 1016.1 -
17/09:00pm 18.6 - - - - S 7 19 4 10 1015.9 1015.9 -
17/08:30pm 18.7 - - - - S 6 17 3 9 1015.6 1015.6 -
17/08:00pm 18.7 - - - - S 6 15 3 8 1015.4 1015.4 -

Other Formats:

Comma delimited format used in spreadsheet applications
http://www.bom.gov.au/fwo/IDW60801/IDW60801.95605.axf

JavaScript Object Notation format (JSON) in row-major order
http://www.bom.gov.au/fwo/IDW60801/IDW60801.95605.json